sensor_id;sensor_type;location;lat;lon;timestamp;P1;durP1;ratioP1;P2;durP2;ratioP2
81908;SDS011;71372;43.514;1.512;2023-07-13T00:02:16;2.35;;;1.60;;
81908;SDS011;71372;43.514;1.512;2023-07-13T00:04:42;2.90;;;1.92;;
81908;SDS011;71372;43.514;1.512;2023-07-13T00:07:08;3.35;;;1.60;;
81908;SDS011;71372;43.514;1.512;2023-07-13T00:09:34;2.50;;;1.70;;
81908;SDS011;71372;43.514;1.512;2023-07-13T00:12:00;2.00;;;1.50;;
81908;SDS011;71372;43.514;1.512;2023-07-13T00:16:54;1.92;;;1.38;;
81908;SDS011;71372;43.514;1.512;2023-07-13T00:19:20;2.47;;;1.77;;
81908;SDS011;71372;43.514;1.512;2023-07-13T00:21:46;3.05;;;1.83;;
81908;SDS011;71372;43.514;1.512;2023-07-13T00:24:14;2.72;;;1.52;;
81908;SDS011;71372;43.514;1.512;2023-07-13T00:26:47;2.00;;;1.42;;
81908;SDS011;71372;43.514;1.512;2023-07-13T00:29:13;2.10;;;1.67;;
81908;SDS011;71372;43.514;1.512;2023-07-13T00:31:40;2.65;;;1.70;;
81908;SDS011;71372;43.514;1.512;2023-07-13T00:34:06;2.33;;;1.55;;
81908;SDS011;71372;43.514;1.512;2023-07-13T00:36:32;1.98;;;1.70;;
81908;SDS011;71372;43.514;1.512;2023-07-13T00:38:58;2.13;;;1.63;;
81908;SDS011;71372;43.514;1.512;2023-07-13T00:41:23;2.40;;;1.48;;
81908;SDS011;71372;43.514;1.512;2023-07-13T00:43:49;2.42;;;1.48;;
81908;SDS011;71372;43.514;1.512;2023-07-13T00:48:47;2.75;;;1.60;;
81908;SDS011;71372;43.514;1.512;2023-07-13T00:51:16;2.95;;;1.80;;
81908;SDS011;71372;43.514;1.512;2023-07-13T00:53:44;2.63;;;1.58;;
81908;SDS011;71372;43.514;1.512;2023-07-13T00:56:10;2.85;;;1.70;;
81908;SDS011;71372;43.514;1.512;2023-07-13T00:58:37;3.00;;;1.80;;
81908;SDS011;71372;43.514;1.512;2023-07-13T01:01:03;2.33;;;1.50;;
81908;SDS011;71372;43.514;1.512;2023-07-13T01:03:29;3.55;;;1.58;;
81908;SDS011;71372;43.514;1.512;2023-07-13T01:05:55;2.25;;;1.42;;
81908;SDS011;71372;43.514;1.512;2023-07-13T01:08:21;3.05;;;1.80;;
81908;SDS011;71372;43.514;1.512;2023-07-13T01:10:51;3.42;;;1.70;;
81908;SDS011;71372;43.514;1.512;2023-07-13T01:13:21;2.65;;;1.70;;
81908;SDS011;71372;43.514;1.512;2023-07-13T01:15:49;2.42;;;1.50;;
81908;SDS011;71372;43.514;1.512;2023-07-13T01:18:24;2.08;;;1.63;;
81908;SDS011;71372;43.514;1.512;2023-07-13T01:21:02;2.90;;;1.45;;
81908;SDS011;71372;43.514;1.512;2023-07-13T01:23:30;1.73;;;1.50;;
81908;SDS011;71372;43.514;1.512;2023-07-13T01:25:57;2.30;;;1.48;;
81908;SDS011;71372;43.514;1.512;2023-07-13T01:28:25;2.58;;;1.65;;
81908;SDS011;71372;43.514;1.512;2023-07-13T01:30:55;2.40;;;1.67;;
81908;SDS011;71372;43.514;1.512;2023-07-13T01:33:24;2.40;;;1.52;;
81908;SDS011;71372;43.514;1.512;2023-07-13T01:35:50;2.08;;;1.30;;
81908;SDS011;71372;43.514;1.512;2023-07-13T01:38:17;1.90;;;1.50;;
81908;SDS011;71372;43.514;1.512;2023-07-13T01:40:45;2.00;;;1.48;;
81908;SDS011;71372;43.514;1.512;2023-07-13T01:43:11;2.00;;;1.60;;
81908;SDS011;71372;43.514;1.512;2023-07-13T01:45:37;1.75;;;1.50;;
81908;SDS011;71372;43.514;1.512;2023-07-13T01:48:03;2.67;;;1.65;;
81908;SDS011;71372;43.514;1.512;2023-07-13T01:50:29;1.73;;;1.50;;
81908;SDS011;71372;43.514;1.512;2023-07-13T01:52:55;2.63;;;1.70;;
81908;SDS011;71372;43.514;1.512;2023-07-13T01:55:21;2.38;;;1.40;;
81908;SDS011;71372;43.514;1.512;2023-07-13T01:57:48;3.13;;;1.42;;
81908;SDS011;71372;43.514;1.512;2023-07-13T02:00:14;2.13;;;1.65;;
81908;SDS011;71372;43.514;1.512;2023-07-13T02:02:40;1.90;;;1.40;;
81908;SDS011;71372;43.514;1.512;2023-07-13T02:05:07;2.00;;;1.50;;
81908;SDS011;71372;43.514;1.512;2023-07-13T02:07:33;1.80;;;1.20;;
81908;SDS011;71372;43.514;1.512;2023-07-13T02:09:59;3.25;;;1.70;;
81908;SDS011;71372;43.514;1.512;2023-07-13T02:12:25;2.45;;;1.35;;
81908;SDS011;71372;43.514;1.512;2023-07-13T02:14:51;1.70;;;1.40;;
81908;SDS011;71372;43.514;1.512;2023-07-13T02:17:16;2.88;;;1.42;;
81908;SDS011;71372;43.514;1.512;2023-07-13T02:19:43;2.17;;;1.40;;
81908;SDS011;71372;43.514;1.512;2023-07-13T02:22:09;4.15;;;1.73;;
81908;SDS011;71372;43.514;1.512;2023-07-13T02:24:35;1.80;;;1.40;;
81908;SDS011;71372;43.514;1.512;2023-07-13T02:27:01;2.47;;;1.30;;
81908;SDS011;71372;43.514;1.512;2023-07-13T02:29:27;1.77;;;1.23;;
81908;SDS011;71372;43.514;1.512;2023-07-13T02:31:52;1.88;;;1.40;;
81908;SDS011;71372;43.514;1.512;2023-07-13T02:34:18;1.77;;;1.17;;
81908;SDS011;71372;43.514;1.512;2023-07-13T02:36:44;1.73;;;1.23;;
81908;SDS011;71372;43.514;1.512;2023-07-13T02:39:11;1.92;;;1.42;;
81908;SDS011;71372;43.514;1.512;2023-07-13T02:41:37;2.05;;;1.50;;
81908;SDS011;71372;43.514;1.512;2023-07-13T02:44:03;1.83;;;1.20;;
81908;SDS011;71372;43.514;1.512;2023-07-13T02:46:34;1.50;;;1.30;;
81908;SDS011;71372;43.514;1.512;2023-07-13T02:49:00;2.03;;;1.48;;
81908;SDS011;71372;43.514;1.512;2023-07-13T02:51:27;3.10;;;1.45;;
81908;SDS011;71372;43.514;1.512;2023-07-13T02:53:53;1.45;;;1.35;;
81908;SDS011;71372;43.514;1.512;2023-07-13T02:56:23;2.53;;;1.50;;
81908;SDS011;71372;43.514;1.512;2023-07-13T02:58:50;2.92;;;1.40;;
81908;SDS011;71372;43.514;1.512;2023-07-13T03:01:16;2.72;;;1.65;;
81908;SDS011;71372;43.514;1.512;2023-07-13T03:03:47;2.38;;;1.05;;
81908;SDS011;71372;43.514;1.512;2023-07-13T03:06:14;3.53;;;1.55;;
81908;SDS011;71372;43.514;1.512;2023-07-13T03:08:41;3.67;;;1.42;;
81908;SDS011;71372;43.514;1.512;2023-07-13T03:11:08;3.03;;;1.35;;
81908;SDS011;71372;43.514;1.512;2023-07-13T03:13:39;2.00;;;1.35;;
81908;SDS011;71372;43.514;1.512;2023-07-13T03:18:32;2.05;;;1.10;;
81908;SDS011;71372;43.514;1.512;2023-07-13T03:20:58;2.80;;;1.35;;
81908;SDS011;71372;43.514;1.512;2023-07-13T03:23:24;3.13;;;1.35;;
81908;SDS011;71372;43.514;1.512;2023-07-13T03:26:00;4.10;;;1.50;;
81908;SDS011;71372;43.514;1.512;2023-07-13T03:28:28;3.25;;;1.50;;
81908;SDS011;71372;43.514;1.512;2023-07-13T03:31:03;2.13;;;1.27;;
81908;SDS011;71372;43.514;1.512;2023-07-13T03:33:37;3.42;;;1.30;;
81908;SDS011;71372;43.514;1.512;2023-07-13T03:36:04;2.40;;;1.20;;
81908;SDS011;71372;43.514;1.512;2023-07-13T03:38:32;3.38;;;1.20;;
81908;SDS011;71372;43.514;1.512;2023-07-13T03:40:58;3.92;;;1.50;;
81908;SDS011;71372;43.514;1.512;2023-07-13T03:43:24;3.08;;;1.42;;
81908;SDS011;71372;43.514;1.512;2023-07-13T03:45:50;2.45;;;1.42;;
81908;SDS011;71372;43.514;1.512;2023-07-13T03:48:16;2.15;;;1.35;;
81908;SDS011;71372;43.514;1.512;2023-07-13T03:50:42;2.95;;;1.30;;
81908;SDS011;71372;43.514;1.512;2023-07-13T03:53:08;3.28;;;1.20;;
81908;SDS011;71372;43.514;1.512;2023-07-13T03:55:34;2.88;;;1.23;;
81908;SDS011;71372;43.514;1.512;2023-07-13T03:58:05;3.28;;;1.30;;
81908;SDS011;71372;43.514;1.512;2023-07-13T04:00:50;3.15;;;1.48;;
81908;SDS011;71372;43.514;1.512;2023-07-13T04:03:16;3.85;;;1.30;;
81908;SDS011;71372;43.514;1.512;2023-07-13T04:05:42;2.03;;;1.30;;
81908;SDS011;71372;43.514;1.512;2023-07-13T04:08:08;1.70;;;1.10;;
81908;SDS011;71372;43.514;1.512;2023-07-13T04:10:34;3.47;;;1.30;;
81908;SDS011;71372;43.514;1.512;2023-07-13T04:13:00;1.58;;;1.02;;
81908;SDS011;71372;43.514;1.512;2023-07-13T04:15:28;2.22;;;1.23;;
81908;SDS011;71372;43.514;1.512;2023-07-13T04:17:55;3.78;;;1.20;;
81908;SDS011;71372;43.514;1.512;2023-07-13T04:20:21;2.80;;;1.10;;
81908;SDS011;71372;43.514;1.512;2023-07-13T04:22:47;5.00;;;1.23;;
81908;SDS011;71372;43.514;1.512;2023-07-13T04:25:13;4.22;;;1.50;;
81908;SDS011;71372;43.514;1.512;2023-07-13T04:27:39;2.38;;;1.17;;
81908;SDS011;71372;43.514;1.512;2023-07-13T04:30:05;3.35;;;1.20;;
81908;SDS011;71372;43.514;1.512;2023-07-13T04:32:32;4.60;;;1.40;;
81908;SDS011;71372;43.514;1.512;2023-07-13T04:34:58;2.67;;;1.35;;
81908;SDS011;71372;43.514;1.512;2023-07-13T04:37:25;2.20;;;1.00;;
81908;SDS011;71372;43.514;1.512;2023-07-13T04:39:52;3.63;;;1.48;;
81908;SDS011;71372;43.514;1.512;2023-07-13T04:42:18;2.70;;;1.10;;
81908;SDS011;71372;43.514;1.512;2023-07-13T04:44:48;2.17;;;1.13;;
81908;SDS011;71372;43.514;1.512;2023-07-13T04:47:14;2.55;;;1.10;;
81908;SDS011;71372;43.514;1.512;2023-07-13T04:49:40;2.90;;;1.10;;
81908;SDS011;71372;43.514;1.512;2023-07-13T04:52:06;4.15;;;1.35;;
81908;SDS011;71372;43.514;1.512;2023-07-13T04:54:33;2.13;;;0.90;;
81908;SDS011;71372;43.514;1.512;2023-07-13T04:56:59;1.88;;;1.10;;
81908;SDS011;71372;43.514;1.512;2023-07-13T04:59:26;2.10;;;1.10;;
81908;SDS011;71372;43.514;1.512;2023-07-13T05:01:52;3.40;;;1.20;;
81908;SDS011;71372;43.514;1.512;2023-07-13T05:04:19;3.00;;;1.10;;
81908;SDS011;71372;43.514;1.512;2023-07-13T05:06:44;2.25;;;1.00;;
81908;SDS011;71372;43.514;1.512;2023-07-13T05:09:10;2.17;;;1.10;;
81908;SDS011;71372;43.514;1.512;2023-07-13T05:11:38;2.00;;;0.95;;
81908;SDS011;71372;43.514;1.512;2023-07-13T05:14:04;3.80;;;1.30;;
81908;SDS011;71372;43.514;1.512;2023-07-13T05:16:29;2.03;;;1.10;;
81908;SDS011;71372;43.514;1.512;2023-07-13T05:18:55;1.58;;;1.00;;
81908;SDS011;71372;43.514;1.512;2023-07-13T05:21:21;2.97;;;1.30;;
81908;SDS011;71372;43.514;1.512;2023-07-13T05:23:47;1.58;;;0.75;;
81908;SDS011;71372;43.514;1.512;2023-07-13T05:26:13;1.88;;;1.13;;
81908;SDS011;71372;43.514;1.512;2023-07-13T05:28:39;2.33;;;1.05;;
81908;SDS011;71372;43.514;1.512;2023-07-13T05:31:06;4.90;;;1.20;;
81908;SDS011;71372;43.514;1.512;2023-07-13T05:33:33;2.97;;;1.00;;
81908;SDS011;71372;43.514;1.512;2023-07-13T05:35:59;2.75;;;1.00;;
81908;SDS011;71372;43.514;1.512;2023-07-13T05:38:26;3.30;;;1.23;;
81908;SDS011;71372;43.514;1.512;2023-07-13T05:40:53;2.85;;;0.90;;
81908;SDS011;71372;43.514;1.512;2023-07-13T05:43:21;1.67;;;0.90;;
81908;SDS011;71372;43.514;1.512;2023-07-13T05:45:47;3.45;;;1.30;;
81908;SDS011;71372;43.514;1.512;2023-07-13T05:50:41;2.72;;;1.20;;
81908;SDS011;71372;43.514;1.512;2023-07-13T05:53:07;1.73;;;0.90;;
81908;SDS011;71372;43.514;1.512;2023-07-13T05:55:32;1.23;;;0.80;;
81908;SDS011;71372;43.514;1.512;2023-07-13T05:57:59;2.13;;;0.95;;
81908;SDS011;71372;43.514;1.512;2023-07-13T06:00:26;3.03;;;1.25;;
81908;SDS011;71372;43.514;1.512;2023-07-13T06:02:52;3.83;;;0.90;;
81908;SDS011;71372;43.514;1.512;2023-07-13T06:05:18;2.08;;;0.98;;
81908;SDS011;71372;43.514;1.512;2023-07-13T06:07:44;3.80;;;1.10;;
81908;SDS011;71372;43.514;1.512;2023-07-13T06:10:10;2.42;;;1.02;;
81908;SDS011;71372;43.514;1.512;2023-07-13T06:12:36;3.35;;;1.00;;
81908;SDS011;71372;43.514;1.512;2023-07-13T06:15:02;2.00;;;1.15;;
81908;SDS011;71372;43.514;1.512;2023-07-13T06:17:29;2.45;;;1.02;;
81908;SDS011;71372;43.514;1.512;2023-07-13T06:19:55;2.13;;;1.10;;
81908;SDS011;71372;43.514;1.512;2023-07-13T06:22:21;3.13;;;0.90;;
81908;SDS011;71372;43.514;1.512;2023-07-13T06:24:46;2.42;;;1.00;;
81908;SDS011;71372;43.514;1.512;2023-07-13T06:27:12;2.08;;;0.90;;
81908;SDS011;71372;43.514;1.512;2023-07-13T06:29:38;3.10;;;1.20;;
81908;SDS011;71372;43.514;1.512;2023-07-13T06:32:05;4.47;;;1.85;;
81908;SDS011;71372;43.514;1.512;2023-07-13T06:34:31;2.50;;;1.30;;
81908;SDS011;71372;43.514;1.512;2023-07-13T06:36:57;2.70;;;1.20;;
81908;SDS011;71372;43.514;1.512;2023-07-13T06:39:23;2.92;;;1.10;;
81908;SDS011;71372;43.514;1.512;2023-07-13T06:41:49;4.75;;;1.38;;
81908;SDS011;71372;43.514;1.512;2023-07-13T06:44:15;4.00;;;1.42;;
81908;SDS011;71372;43.514;1.512;2023-07-13T06:46:40;2.40;;;1.10;;
81908;SDS011;71372;43.514;1.512;2023-07-13T06:49:08;3.88;;;1.40;;
81908;SDS011;71372;43.514;1.512;2023-07-13T06:54:00;2.72;;;1.30;;
81908;SDS011;71372;43.514;1.512;2023-07-13T06:56:26;2.50;;;1.10;;
81908;SDS011;71372;43.514;1.512;2023-07-13T06:58:51;3.08;;;1.33;;
81908;SDS011;71372;43.514;1.512;2023-07-13T07:01:17;2.67;;;0.98;;
81908;SDS011;71372;43.514;1.512;2023-07-13T07:03:43;2.47;;;1.05;;
81908;SDS011;71372;43.514;1.512;2023-07-13T07:08:51;3.33;;;1.90;;
81908;SDS011;71372;43.514;1.512;2023-07-13T07:11:22;2.97;;;1.92;;
81908;SDS011;71372;43.514;1.512;2023-07-13T07:13:50;2.30;;;1.17;;
81908;SDS011;71372;43.514;1.512;2023-07-13T07:16:17;2.90;;;1.40;;
81908;SDS011;71372;43.514;1.512;2023-07-13T07:18:44;3.72;;;1.15;;
81908;SDS011;71372;43.514;1.512;2023-07-13T07:21:11;3.28;;;1.10;;
81908;SDS011;71372;43.514;1.512;2023-07-13T07:23:37;2.53;;;1.00;;
81908;SDS011;71372;43.514;1.512;2023-07-13T07:26:03;2.40;;;1.20;;
81908;SDS011;71372;43.514;1.512;2023-07-13T07:28:29;2.22;;;1.05;;
81908;SDS011;71372;43.514;1.512;2023-07-13T07:30:56;2.88;;;1.10;;
81908;SDS011;71372;43.514;1.512;2023-07-13T07:33:24;2.65;;;1.40;;
81908;SDS011;71372;43.514;1.512;2023-07-13T07:35:50;2.53;;;1.10;;
81908;SDS011;71372;43.514;1.512;2023-07-13T07:38:16;2.70;;;1.10;;
81908;SDS011;71372;43.514;1.512;2023-07-13T07:40:43;3.15;;;1.20;;
81908;SDS011;71372;43.514;1.512;2023-07-13T07:43:10;1.92;;;1.00;;
81908;SDS011;71372;43.514;1.512;2023-07-13T07:45:37;1.58;;;0.80;;
81908;SDS011;71372;43.514;1.512;2023-07-13T07:48:04;1.73;;;1.05;;
81908;SDS011;71372;43.514;1.512;2023-07-13T07:50:31;1.13;;;0.90;;
81908;SDS011;71372;43.514;1.512;2023-07-13T07:52:57;1.92;;;0.80;;
81908;SDS011;71372;43.514;1.512;2023-07-13T07:55:23;2.45;;;1.00;;
81908;SDS011;71372;43.514;1.512;2023-07-13T07:57:52;1.83;;;0.82;;
81908;SDS011;71372;43.514;1.512;2023-07-13T08:00:18;2.03;;;1.10;;
81908;SDS011;71372;43.514;1.512;2023-07-13T08:02:44;2.38;;;1.00;;
81908;SDS011;71372;43.514;1.512;2023-07-13T08:05:11;1.52;;;0.80;;
81908;SDS011;71372;43.514;1.512;2023-07-13T08:07:37;1.95;;;0.80;;
81908;SDS011;71372;43.514;1.512;2023-07-13T08:10:04;2.65;;;1.00;;
81908;SDS011;71372;43.514;1.512;2023-07-13T08:12:34;1.55;;;0.90;;
81908;SDS011;71372;43.514;1.512;2023-07-13T08:15:04;1.55;;;0.80;;
81908;SDS011;71372;43.514;1.512;2023-07-13T08:17:31;2.42;;;1.02;;
81908;SDS011;71372;43.514;1.512;2023-07-13T08:19:57;2.45;;;0.93;;
81908;SDS011;71372;43.514;1.512;2023-07-13T08:22:23;1.75;;;0.70;;
81908;SDS011;71372;43.514;1.512;2023-07-13T08:24:49;1.65;;;0.80;;
81908;SDS011;71372;43.514;1.512;2023-07-13T08:27:24;2.03;;;1.00;;
81908;SDS011;71372;43.514;1.512;2023-07-13T08:29:52;1.58;;;0.90;;
81908;SDS011;71372;43.514;1.512;2023-07-13T08:32:19;2.33;;;0.82;;
81908;SDS011;71372;43.514;1.512;2023-07-13T08:34:46;2.72;;;0.95;;
81908;SDS011;71372;43.514;1.512;2023-07-13T08:37:13;2.13;;;0.90;;
81908;SDS011;71372;43.514;1.512;2023-07-13T08:39:39;1.20;;;0.80;;
81908;SDS011;71372;43.514;1.512;2023-07-13T08:42:07;1.85;;;0.85;;
81908;SDS011;71372;43.514;1.512;2023-07-13T08:44:45;1.63;;;0.80;;
81908;SDS011;71372;43.514;1.512;2023-07-13T08:47:21;2.45;;;0.82;;
81908;SDS011;71372;43.514;1.512;2023-07-13T08:49:49;1.80;;;0.90;;
81908;SDS011;71372;43.514;1.512;2023-07-13T08:54:50;2.90;;;0.90;;
81908;SDS011;71372;43.514;1.512;2023-07-13T08:57:21;3.40;;;0.90;;
81908;SDS011;71372;43.514;1.512;2023-07-13T08:59:55;1.88;;;0.80;;
81908;SDS011;71372;43.514;1.512;2023-07-13T09:02:42;2.78;;;0.75;;
81908;SDS011;71372;43.514;1.512;2023-07-13T09:05:14;2.58;;;0.75;;
81908;SDS011;71372;43.514;1.512;2023-07-13T09:10:18;2.78;;;0.82;;
81908;SDS011;71372;43.514;1.512;2023-07-13T09:15:42;2.28;;;0.70;;
81908;SDS011;71372;43.514;1.512;2023-07-13T09:23:29;2.58;;;0.90;;
81908;SDS011;71372;43.514;1.512;2023-07-13T09:28:44;2.53;;;0.80;;
81908;SDS011;71372;43.514;1.512;2023-07-13T09:33:44;1.00;;;0.70;;
81908;SDS011;71372;43.514;1.512;2023-07-13T09:36:21;1.00;;;0.60;;
81908;SDS011;71372;43.514;1.512;2023-07-13T09:44:28;2.53;;;0.93;;
81908;SDS011;71372;43.514;1.512;2023-07-13T09:46:57;1.98;;;0.75;;
81908;SDS011;71372;43.514;1.512;2023-07-13T09:49:23;1.55;;;0.75;;
81908;SDS011;71372;43.514;1.512;2023-07-13T09:51:57;2.20;;;0.70;;
81908;SDS011;71372;43.514;1.512;2023-07-13T09:54:36;1.95;;;0.82;;
81908;SDS011;71372;43.514;1.512;2023-07-13T09:57:08;1.45;;;0.80;;
81908;SDS011;71372;43.514;1.512;2023-07-13T09:59:43;0.65;;;0.60;;
81908;SDS011;71372;43.514;1.512;2023-07-13T10:02:22;1.38;;;0.70;;
81908;SDS011;71372;43.514;1.512;2023-07-13T10:04:57;1.65;;;0.80;;
81908;SDS011;71372;43.514;1.512;2023-07-13T10:07:24;3.92;;;0.90;;
81908;SDS011;71372;43.514;1.512;2023-07-13T10:09:54;1.58;;;0.73;;
81908;SDS011;71372;43.514;1.512;2023-07-13T10:12:21;1.85;;;0.85;;
81908;SDS011;71372;43.514;1.512;2023-07-13T10:14:54;2.38;;;0.80;;
81908;SDS011;71372;43.514;1.512;2023-07-13T10:17:25;2.13;;;0.75;;
81908;SDS011;71372;43.514;1.512;2023-07-13T10:19:58;1.90;;;1.05;;
81908;SDS011;71372;43.514;1.512;2023-07-13T10:25:20;1.90;;;0.75;;
81908;SDS011;71372;43.514;1.512;2023-07-13T10:27:50;1.40;;;0.80;;
81908;SDS011;71372;43.514;1.512;2023-07-13T10:30:20;2.15;;;0.70;;
81908;SDS011;71372;43.514;1.512;2023-07-13T10:32:49;2.05;;;0.80;;
81908;SDS011;71372;43.514;1.512;2023-07-13T10:35:17;1.33;;;0.70;;
81908;SDS011;71372;43.514;1.512;2023-07-13T10:37:47;0.98;;;0.70;;
81908;SDS011;71372;43.514;1.512;2023-07-13T10:40:23;1.45;;;0.77;;
81908;SDS011;71372;43.514;1.512;2023-07-13T10:42:56;1.25;;;0.80;;
81908;SDS011;71372;43.514;1.512;2023-07-13T10:45:24;1.35;;;0.73;;
81908;SDS011;71372;43.514;1.512;2023-07-13T10:47:52;1.42;;;0.80;;
81908;SDS011;71372;43.514;1.512;2023-07-13T10:50:25;1.13;;;0.75;;
81908;SDS011;71372;43.514;1.512;2023-07-13T10:52:54;1.17;;;0.70;;
81908;SDS011;71372;43.514;1.512;2023-07-13T10:58:22;2.03;;;0.80;;
81908;SDS011;71372;43.514;1.512;2023-07-13T11:03:32;0.85;;;0.70;;
81908;SDS011;71372;43.514;1.512;2023-07-13T11:13:59;1.95;;;0.80;;
81908;SDS011;71372;43.514;1.512;2023-07-13T11:16:37;0.80;;;0.70;;
81908;SDS011;71372;43.514;1.512;2023-07-13T11:19:37;1.15;;;0.80;;
81908;SDS011;71372;43.514;1.512;2023-07-13T11:24:29;1.83;;;0.70;;
81908;SDS011;71372;43.514;1.512;2023-07-13T11:27:33;1.23;;;0.80;;
81908;SDS011;71372;43.514;1.512;2023-07-13T11:40:55;1.90;;;0.70;;
81908;SDS011;71372;43.514;1.512;2023-07-13T11:43:28;1.00;;;0.70;;
81908;SDS011;71372;43.514;1.512;2023-07-13T11:45:54;2.33;;;1.05;;
81908;SDS011;71372;43.514;1.512;2023-07-13T11:48:22;1.02;;;0.70;;
81908;SDS011;71372;43.514;1.512;2023-07-13T11:50:54;1.08;;;0.60;;
81908;SDS011;71372;43.514;1.512;2023-07-13T11:53:40;1.33;;;0.73;;
81908;SDS011;71372;43.514;1.512;2023-07-13T11:56:10;2.08;;;0.90;;
81908;SDS011;71372;43.514;1.512;2023-07-13T11:58:37;1.75;;;0.90;;
81908;SDS011;71372;43.514;1.512;2023-07-13T12:01:03;2.60;;;0.90;;
81908;SDS011;71372;43.514;1.512;2023-07-13T12:03:33;2.42;;;0.80;;
81908;SDS011;71372;43.514;1.512;2023-07-13T12:06:04;1.85;;;0.70;;
81908;SDS011;71372;43.514;1.512;2023-07-13T12:08:32;1.30;;;0.70;;
81908;SDS011;71372;43.514;1.512;2023-07-13T12:11:05;1.95;;;0.90;;
81908;SDS011;71372;43.514;1.512;2023-07-13T12:13:41;1.05;;;0.70;;
81908;SDS011;71372;43.514;1.512;2023-07-13T12:16:10;1.40;;;0.82;;
81908;SDS011;71372;43.514;1.512;2023-07-13T12:18:39;1.42;;;0.73;;
81908;SDS011;71372;43.514;1.512;2023-07-13T12:21:05;1.88;;;0.90;;
81908;SDS011;71372;43.514;1.512;2023-07-13T12:23:38;1.88;;;0.73;;
81908;SDS011;71372;43.514;1.512;2023-07-13T12:26:04;2.08;;;0.85;;
81908;SDS011;71372;43.514;1.512;2023-07-13T12:31:06;3.25;;;0.75;;
81908;SDS011;71372;43.514;1.512;2023-07-13T12:33:33;1.30;;;0.90;;
81908;SDS011;71372;43.514;1.512;2023-07-13T12:36:04;0.73;;;0.73;;
81908;SDS011;71372;43.514;1.512;2023-07-13T12:38:32;2.60;;;0.82;;
81908;SDS011;71372;43.514;1.512;2023-07-13T12:40:58;1.95;;;1.00;;
81908;SDS011;71372;43.514;1.512;2023-07-13T12:43:24;0.70;;;0.70;;
81908;SDS011;71372;43.514;1.512;2023-07-13T12:46:01;1.00;;;0.80;;
81908;SDS011;71372;43.514;1.512;2023-07-13T12:48:28;1.92;;;0.90;;
81908;SDS011;71372;43.514;1.512;2023-07-13T12:50:55;1.52;;;1.00;;
81908;SDS011;71372;43.514;1.512;2023-07-13T12:53:23;2.38;;;0.90;;
81908;SDS011;71372;43.514;1.512;2023-07-13T12:56:01;1.00;;;0.77;;
81908;SDS011;71372;43.514;1.512;2023-07-13T12:58:32;1.17;;;0.82;;
81908;SDS011;71372;43.514;1.512;2023-07-13T13:01:03;1.88;;;0.80;;
81908;SDS011;71372;43.514;1.512;2023-07-13T13:03:40;1.48;;;0.80;;
81908;SDS011;71372;43.514;1.512;2023-07-13T13:08:40;1.02;;;0.90;;
81908;SDS011;71372;43.514;1.512;2023-07-13T13:11:08;2.60;;;1.00;;
81908;SDS011;71372;43.514;1.512;2023-07-13T13:13:34;1.95;;;1.10;;
81908;SDS011;71372;43.514;1.512;2023-07-13T13:16:23;2.60;;;1.00;;
81908;SDS011;71372;43.514;1.512;2023-07-13T13:18:49;3.13;;;0.90;;
81908;SDS011;71372;43.514;1.512;2023-07-13T13:21:17;1.40;;;0.90;;
81908;SDS011;71372;43.514;1.512;2023-07-13T13:23:43;1.80;;;1.10;;
81908;SDS011;71372;43.514;1.512;2023-07-13T13:26:15;1.17;;;0.82;;
81908;SDS011;71372;43.514;1.512;2023-07-13T13:28:42;1.73;;;0.90;;
81908;SDS011;71372;43.514;1.512;2023-07-13T13:31:09;2.03;;;0.90;;
81908;SDS011;71372;43.514;1.512;2023-07-13T13:33:38;0.85;;;0.70;;
81908;SDS011;71372;43.514;1.512;2023-07-13T13:36:18;1.35;;;0.80;;
81908;SDS011;71372;43.514;1.512;2023-07-13T13:38:47;1.20;;;0.90;;
81908;SDS011;71372;43.514;1.512;2023-07-13T13:41:14;1.13;;;0.80;;
81908;SDS011;71372;43.514;1.512;2023-07-13T13:43:41;2.35;;;0.90;;
81908;SDS011;71372;43.514;1.512;2023-07-13T13:46:17;0.95;;;0.82;;
81908;SDS011;71372;43.514;1.512;2023-07-13T13:48:45;1.30;;;0.90;;
81908;SDS011;71372;43.514;1.512;2023-07-13T13:51:15;1.55;;;0.90;;
81908;SDS011;71372;43.514;1.512;2023-07-13T13:53:44;2.45;;;0.80;;
81908;SDS011;71372;43.514;1.512;2023-07-13T13:56:11;2.55;;;0.90;;
81908;SDS011;71372;43.514;1.512;2023-07-13T13:58:38;0.93;;;0.90;;
81908;SDS011;71372;43.514;1.512;2023-07-13T14:01:04;1.27;;;1.00;;
81908;SDS011;71372;43.514;1.512;2023-07-13T14:03:36;0.88;;;0.68;;
81908;SDS011;71372;43.514;1.512;2023-07-13T14:06:01;1.38;;;0.80;;
81908;SDS011;71372;43.514;1.512;2023-07-13T14:08:27;1.05;;;0.70;;
81908;SDS011;71372;43.514;1.512;2023-07-13T14:10:54;1.90;;;0.60;;
81908;SDS011;71372;43.514;1.512;2023-07-13T14:13:24;1.45;;;0.80;;
81908;SDS011;71372;43.514;1.512;2023-07-13T14:15:54;1.02;;;0.70;;
81908;SDS011;71372;43.514;1.512;2023-07-13T14:18:20;1.60;;;0.90;;
81908;SDS011;71372;43.514;1.512;2023-07-13T14:20:46;1.35;;;0.90;;
81908;SDS011;71372;43.514;1.512;2023-07-13T14:23:14;2.00;;;0.90;;
81908;SDS011;71372;43.514;1.512;2023-07-13T14:28:19;1.48;;;0.65;;
81908;SDS011;71372;43.514;1.512;2023-07-13T14:33:11;1.00;;;0.70;;
81908;SDS011;71372;43.514;1.512;2023-07-13T14:35:37;1.58;;;0.90;;
81908;SDS011;71372;43.514;1.512;2023-07-13T14:38:04;1.88;;;0.82;;
81908;SDS011;71372;43.514;1.512;2023-07-13T14:40:31;1.95;;;0.63;;
81908;SDS011;71372;43.514;1.512;2023-07-13T14:42:57;1.50;;;0.70;;
81908;SDS011;71372;43.514;1.512;2023-07-13T14:45:24;1.15;;;0.60;;
81908;SDS011;71372;43.514;1.512;2023-07-13T14:47:51;1.10;;;0.70;;
81908;SDS011;71372;43.514;1.512;2023-07-13T14:50:22;2.92;;;1.00;;
81908;SDS011;71372;43.514;1.512;2023-07-13T14:52:55;1.10;;;0.65;;
81908;SDS011;71372;43.514;1.512;2023-07-13T14:55:21;1.15;;;0.80;;
81908;SDS011;71372;43.514;1.512;2023-07-13T14:57:48;1.05;;;0.80;;
81908;SDS011;71372;43.514;1.512;2023-07-13T15:00:16;1.25;;;0.90;;
81908;SDS011;71372;43.514;1.512;2023-07-13T15:02:46;1.35;;;0.80;;
81908;SDS011;71372;43.514;1.512;2023-07-13T15:05:22;1.73;;;0.70;;
81908;SDS011;71372;43.514;1.512;2023-07-13T15:07:50;1.90;;;0.80;;
81908;SDS011;71372;43.514;1.512;2023-07-13T15:10:22;1.27;;;0.75;;
81908;SDS011;71372;43.514;1.512;2023-07-13T15:12:51;2.22;;;0.90;;
81908;SDS011;71372;43.514;1.512;2023-07-13T15:15:17;0.88;;;0.70;;
81908;SDS011;71372;43.514;1.512;2023-07-13T15:17:44;1.45;;;0.80;;
81908;SDS011;71372;43.514;1.512;2023-07-13T15:22:54;1.55;;;0.80;;
81908;SDS011;71372;43.514;1.512;2023-07-13T15:25:22;1.23;;;0.85;;
81908;SDS011;71372;43.514;1.512;2023-07-13T15:27:50;1.10;;;0.70;;
81908;SDS011;71372;43.514;1.512;2023-07-13T15:30:17;0.65;;;0.60;;
81908;SDS011;71372;43.514;1.512;2023-07-13T15:32:43;1.55;;;0.60;;
81908;SDS011;71372;43.514;1.512;2023-07-13T15:35:17;1.58;;;0.70;;
81908;SDS011;71372;43.514;1.512;2023-07-13T15:37:46;0.80;;;0.73;;
81908;SDS011;71372;43.514;1.512;2023-07-13T15:40:12;1.02;;;0.52;;
81908;SDS011;71372;43.514;1.512;2023-07-13T15:42:40;1.25;;;0.75;;
81908;SDS011;71372;43.514;1.512;2023-07-13T15:45:23;0.80;;;0.70;;
81908;SDS011;71372;43.514;1.512;2023-07-13T15:47:53;1.05;;;0.75;;
81908;SDS011;71372;43.514;1.512;2023-07-13T15:50:22;2.22;;;0.70;;
81908;SDS011;71372;43.514;1.512;2023-07-13T15:52:53;1.88;;;0.90;;
81908;SDS011;71372;43.514;1.512;2023-07-13T15:55:21;1.45;;;1.02;;
81908;SDS011;71372;43.514;1.512;2023-07-13T15:57:48;2.72;;;0.65;;
81908;SDS011;71372;43.514;1.512;2023-07-13T16:00:19;1.65;;;0.90;;
81908;SDS011;71372;43.514;1.512;2023-07-13T16:02:47;0.80;;;0.70;;
81908;SDS011;71372;43.514;1.512;2023-07-13T16:05:14;1.73;;;0.70;;
81908;SDS011;71372;43.514;1.512;2023-07-13T16:10:17;1.63;;;0.70;;
81908;SDS011;71372;43.514;1.512;2023-07-13T16:12:46;0.70;;;0.65;;
81908;SDS011;71372;43.514;1.512;2023-07-13T16:15:16;1.20;;;0.80;;
81908;SDS011;71372;43.514;1.512;2023-07-13T16:17:44;2.88;;;0.60;;
81908;SDS011;71372;43.514;1.512;2023-07-13T16:20:12;2.45;;;0.90;;